createdAt,value
2019-02-11T00:04:44.399Z,0.30
2019-02-11T00:09:45.607Z,0.40
2019-02-11T00:14:46.725Z,0.20
2019-02-11T00:19:47.826Z,0.33
2019-02-11T00:24:50.108Z,0.70
2019-02-11T00:29:51.231Z,0.20
2019-02-11T00:34:52.421Z,0.40
2019-02-11T00:39:53.518Z,0.30
2019-02-11T00:44:54.607Z,0.20
2019-02-11T00:49:55.712Z,0.40
2019-02-11T00:54:56.822Z,0.60
2019-02-11T00:59:57.939Z,1.07
2019-02-11T01:04:59.036Z,2.20
2019-02-11T01:10:00.141Z,2.70
2019-02-11T01:15:01.331Z,0.73
2019-02-11T01:20:05.032Z,1.43
2019-02-11T01:25:06.931Z,0.60
2019-02-11T01:30:10.235Z,1.37
2019-02-11T01:35:11.334Z,1.10
2019-02-11T01:40:12.428Z,1.23
2019-02-11T01:45:13.723Z,1.43
2019-02-11T01:50:14.811Z,2.73
2019-02-11T01:55:15.906Z,1.20
2019-02-11T02:00:17.023Z,0.87
2019-02-11T02:05:18.128Z,1.00
2019-02-11T02:10:19.229Z,2.80
2019-02-11T02:15:20.329Z,3.07
2019-02-11T02:20:21.540Z,2.00
2019-02-11T02:25:22.622Z,2.20
2019-02-11T02:30:23.720Z,1.23
2019-02-11T02:35:24.804Z,1.40
2019-02-11T02:40:25.992Z,1.17
2019-02-11T02:45:27.181Z,2.50
2019-02-11T02:50:28.300Z,1.60
2019-02-11T02:55:29.424Z,1.57
2019-02-11T03:00:30.735Z,3.93
2019-02-11T03:05:31.835Z,2.60
2019-02-11T03:10:32.952Z,1.30
2019-02-11T03:15:34.075Z,3.73
2019-02-11T03:20:35.171Z,1.97
2019-02-11T03:25:36.263Z,3.20
2019-02-11T03:30:37.354Z,2.17
2019-02-11T03:35:38.685Z,3.47
2019-02-11T03:40:39.772Z,1.20
2019-02-11T03:45:40.874Z,1.30
2019-02-11T03:50:42.178Z,1.27
2019-02-11T03:55:43.372Z,1.20
2019-02-11T04:00:44.595Z,1.70
2019-02-11T04:05:45.686Z,2.43
2019-02-11T04:10:46.803Z,2.10
2019-02-11T04:15:47.909Z,2.03
2019-02-11T04:20:49.250Z,1.63
2019-02-11T04:25:50.399Z,2.50
2019-02-11T04:30:51.501Z,2.17
2019-02-11T04:35:52.601Z,3.93
2019-02-11T04:40:53.705Z,2.80
2019-02-11T04:45:54.801Z,2.73
2019-02-11T04:50:55.920Z,6.87
2019-02-11T04:55:57.017Z,6.00
2019-02-11T05:00:58.165Z,10.80
2019-02-11T05:05:59.261Z,3.20
2019-02-11T05:11:00.358Z,2.50
2019-02-11T05:16:01.441Z,2.37
2019-02-11T05:21:02.654Z,3.60
2019-02-11T05:26:03.856Z,3.10
2019-02-11T05:31:04.955Z,3.97
2019-02-11T05:36:06.056Z,1.80
2019-02-11T05:41:07.158Z,3.10
2019-02-11T05:46:08.231Z,4.90
2019-02-11T05:51:09.348Z,2.57
2019-02-11T05:56:10.450Z,8.07
2019-02-11T06:01:11.564Z,2.57
2019-02-11T06:06:12.669Z,2.43
2019-02-11T06:11:13.794Z,3.27
2019-02-11T06:16:14.884Z,3.87
2019-02-11T06:21:15.986Z,2.50
2019-02-11T06:26:19.932Z,3.83
2019-02-11T06:31:21.034Z,3.87
2019-02-11T06:36:22.131Z,5.20
2019-02-11T06:41:23.426Z,5.00
2019-02-11T06:46:24.535Z,3.83
2019-02-11T06:51:25.622Z,3.40
2019-02-11T06:56:26.732Z,2.67
2019-02-11T07:01:27.886Z,6.83
2019-02-11T07:06:28.984Z,7.60
2019-02-11T07:11:30.084Z,3.97
2019-02-11T07:16:31.174Z,5.47
2019-02-11T07:21:32.268Z,2.97
2019-02-11T07:26:33.362Z,3.10
2019-02-11T07:31:34.575Z,2.43
2019-02-11T07:36:35.675Z,4.07
2019-02-11T07:41:38.687Z,5.00
2019-02-11T07:46:40.784Z,3.03
2019-02-11T07:51:42.554Z,2.43
2019-02-11T07:56:43.785Z,5.80
2019-02-11T08:01:44.908Z,4.40
2019-02-11T08:06:45.998Z,6.20
2019-02-11T08:11:47.110Z,4.33
2019-02-11T08:16:48.201Z,3.40
2019-02-11T08:21:49.407Z,3.23
2019-02-11T08:26:50.496Z,3.80
2019-02-11T08:31:51.599Z,3.30
2019-02-11T08:36:52.797Z,3.80
2019-02-11T08:41:53.896Z,3.03
2019-02-11T08:46:55.008Z,6.27
2019-02-11T08:51:56.115Z,4.90
2019-02-11T08:56:57.540Z,4.53
2019-02-11T09:01:58.938Z,5.27
2019-02-11T09:07:00.133Z,5.43
2019-02-11T09:12:01.227Z,7.67
2019-02-11T09:17:10.059Z,5.90
2019-02-11T09:22:07.527Z,7.20
2019-02-11T09:27:08.438Z,5.90
2019-02-11T09:32:09.635Z,4.87
2019-02-11T09:37:10.732Z,7.93
2019-02-11T09:42:11.834Z,8.20
2019-02-11T09:47:12.943Z,8.90
2019-02-11T09:52:14.031Z,6.40
2019-02-11T09:57:15.162Z,7.63
2019-02-11T10:02:16.371Z,5.90
2019-02-11T10:07:17.475Z,2.40
2019-02-11T10:12:21.356Z,6.90
2019-02-11T10:17:29.514Z,3.67
2019-02-11T10:22:24.604Z,2.93
2019-02-11T10:27:25.705Z,6.83
2019-02-11T10:32:26.901Z,4.43
2019-02-11T10:37:28.011Z,5.63
2019-02-11T10:42:29.099Z,4.83
2019-02-11T10:47:30.200Z,6.80
2019-02-11T10:52:31.419Z,4.60
2019-02-11T10:57:32.514Z,6.10
2019-02-11T11:02:33.638Z,4.23
2019-02-11T11:07:34.839Z,3.10
2019-02-11T11:12:36.036Z,6.00
2019-02-11T11:17:37.555Z,4.13
2019-02-11T11:22:38.764Z,4.00
2019-02-11T11:27:39.851Z,6.47
2019-02-11T11:32:42.155Z,4.57
2019-02-11T11:37:43.351Z,6.13
2019-02-11T11:42:44.571Z,8.30
2019-02-11T11:47:45.974Z,7.30
2019-02-11T11:52:47.089Z,8.93
2019-02-11T11:57:48.430Z,9.10
2019-02-11T12:03:02.131Z,5.53
2019-02-11T12:07:52.758Z,6.80
2019-02-11T12:12:54.005Z,7.83
2019-02-11T12:17:56.631Z,4.93
2019-02-11T12:22:57.833Z,4.57
2019-02-11T12:27:59.054Z,8.73
2019-02-11T12:33:00.255Z,6.30
2019-02-11T12:38:01.572Z,4.87
2019-02-11T12:43:02.902Z,4.77
2019-02-11T12:48:04.090Z,6.97
2019-02-11T12:53:05.306Z,5.93
2019-02-11T12:58:06.419Z,9.17
2019-02-11T13:03:07.739Z,7.13
2019-02-11T13:08:08.946Z,7.30
2019-02-11T13:13:10.151Z,6.20
2019-02-11T13:18:11.311Z,4.83
2019-02-11T13:23:12.461Z,5.80
2019-02-11T13:28:13.565Z,6.30
2019-02-11T13:33:14.678Z,7.63
2019-02-11T13:38:15.867Z,7.67
2019-02-11T13:43:16.991Z,6.70
2019-02-11T13:48:18.492Z,4.43
2019-02-11T13:53:19.720Z,3.73
2019-02-11T13:58:20.952Z,5.97
2019-02-11T14:03:22.590Z,8.37
2019-02-11T14:08:24.073Z,7.93
2019-02-11T14:13:25.155Z,10.73
2019-02-11T14:18:26.241Z,10.60
2019-02-11T14:23:27.354Z,6.23
2019-02-11T14:28:28.589Z,7.40
2019-02-11T14:33:29.876Z,5.43
2019-02-11T14:38:30.978Z,11.07
2019-02-11T14:43:32.083Z,5.63
2019-02-11T14:48:33.176Z,4.83
2019-02-11T14:53:34.298Z,5.27
2019-02-11T14:58:37.154Z,5.80
2019-02-11T15:03:38.470Z,8.30
2019-02-11T15:08:39.769Z,8.47
2019-02-11T15:13:40.871Z,6.67
2019-02-11T15:18:42.089Z,5.97
2019-02-11T15:23:43.459Z,4.77
2019-02-11T15:28:44.547Z,5.67
2019-02-11T15:33:45.658Z,3.20
2019-02-11T15:38:46.777Z,11.43
2019-02-11T15:43:47.892Z,8.23
2019-02-11T15:48:49.021Z,12.83
2019-02-11T15:53:50.146Z,6.97
2019-02-11T15:58:51.261Z,3.67
2019-02-11T16:03:52.427Z,5.83
2019-02-11T16:08:53.536Z,7.77
2019-02-11T16:13:54.627Z,7.47
2019-02-11T16:18:55.720Z,13.83
2019-02-11T16:23:56.972Z,14.97
2019-02-11T16:28:59.568Z,7.67
2019-02-11T16:34:00.664Z,8.60
2019-02-11T16:39:03.779Z,5.03
2019-02-11T16:44:04.949Z,4.93
2019-02-11T16:49:06.047Z,8.10
2019-02-11T16:54:07.166Z,10.10
2019-02-11T16:59:08.279Z,7.70
2019-02-11T17:04:09.498Z,11.67
2019-02-11T17:09:10.723Z,13.45
2019-02-11T17:14:11.925Z,6.87
2019-02-11T17:19:13.015Z,7.43
2019-02-11T17:24:14.153Z,4.23
2019-02-11T17:29:15.257Z,5.30
2019-02-11T17:34:16.441Z,6.23
2019-02-11T17:39:17.662Z,13.47
2019-02-11T17:44:18.789Z,8.30
2019-02-11T17:49:20.093Z,10.27
2019-02-11T17:54:21.672Z,6.70
2019-02-11T17:59:22.961Z,8.83
2019-02-11T18:04:24.268Z,6.00
2019-02-11T18:09:25.499Z,4.73
2019-02-11T18:14:26.621Z,6.63
2019-02-11T18:19:27.839Z,7.60
2019-02-11T18:24:29.055Z,7.40
2019-02-11T18:29:30.188Z,7.60
2019-02-11T18:34:31.304Z,6.23
2019-02-11T18:39:32.461Z,5.40
2019-02-11T18:44:33.637Z,8.13
2019-02-11T18:49:34.932Z,5.23
2019-02-11T18:54:36.490Z,8.20
2019-02-11T18:59:37.619Z,6.20
2019-02-11T19:04:38.842Z,4.30
2019-02-11T19:09:39.920Z,5.73
2019-02-11T19:14:41.093Z,7.97
2019-02-11T19:19:43.425Z,7.10
2019-02-11T19:24:44.918Z,7.30
2019-02-11T19:29:47.056Z,4.83
2019-02-11T19:34:48.275Z,4.83
2019-02-11T19:39:49.419Z,8.03
2019-02-11T19:44:50.674Z,9.37
2019-02-11T19:49:52.152Z,9.98
2019-02-11T19:54:53.623Z,8.27
2019-02-11T19:59:55.880Z,8.73
2019-02-11T20:04:57.162Z,9.27
2019-02-11T20:09:58.321Z,9.10
2019-02-11T20:14:59.432Z,8.50
2019-02-11T20:20:00.951Z,11.10
2019-02-11T20:25:02.606Z,7.13
2019-02-11T20:30:10.177Z,11.17
2019-02-11T20:35:11.596Z,8.23
2019-02-11T20:40:22.068Z,10.97
2019-02-11T20:45:25.373Z,11.57
2019-02-11T20:50:26.534Z,9.77
2019-02-11T20:55:27.634Z,10.80
2019-02-11T21:00:28.999Z,7.97
2019-02-11T21:05:30.112Z,8.53
2019-02-11T21:10:31.471Z,6.33
2019-02-11T21:15:32.751Z,7.77
2019-02-11T21:20:39.797Z,6.60
2019-02-11T21:25:40.905Z,10.20
2019-02-11T21:30:42.012Z,10.50
2019-02-11T21:35:43.220Z,8.27
2019-02-11T21:40:44.317Z,9.30
2019-02-11T21:45:45.779Z,5.80
2019-02-11T21:50:48.738Z,9.37
2019-02-11T21:55:49.885Z,9.53
2019-02-11T22:00:52.671Z,9.63
2019-02-11T22:05:53.988Z,7.70
2019-02-11T22:10:55.098Z,8.43
2019-02-11T22:15:56.296Z,6.27
2019-02-11T22:20:57.396Z,10.80
2019-02-11T22:25:58.506Z,24.57
2019-02-11T22:30:59.613Z,10.23
2019-02-11T22:36:00.704Z,13.60
2019-02-11T22:41:01.821Z,10.90
2019-02-11T22:46:02.923Z,5.70
2019-02-11T22:51:04.060Z,12.10
2019-02-11T22:56:05.176Z,6.23
2019-02-11T23:01:07.028Z,9.53
2019-02-11T23:06:08.337Z,12.03
2019-02-11T23:11:09.448Z,9.77
2019-02-11T23:16:11.296Z,14.27
2019-02-11T23:21:12.420Z,16.80
2019-02-11T23:26:13.523Z,10.47
2019-02-11T23:31:14.633Z,8.30
2019-02-11T23:36:15.739Z,10.13
2019-02-11T23:41:16.950Z,13.13
2019-02-11T23:46:18.060Z,6.07
2019-02-11T23:51:19.164Z,11.13
2019-02-11T23:56:20.285Z,6.90
